Terminal Aerodrome Forecast
Issued by NWS Shreveport, LA

Home | Current Version | Previous Version | Text Only | Print | Product List | Glossary On
Versions: 1 2 3 4 5 6 7 8 9 10 11 12 13 14 15 16 17
000
FTUS44 KSHV 010500 RRA
TAFMLU
TAF
KMLU 010550Z 0106/0206 16007KT P6SM OVC120
     FM011000 16010KT P6SM VCSH OVC070
      TEMPO 0110/0114 5SM -RA BR OVC020
     FM012000 23010G18KT 5SM -TSRA BR OVC015CB
     FM020000 31010G18KT 5SM -RA BR OVC020
     FM020400 32012G20KT P6SM BKN030 OVC100=

USA.gov is the U.S. government's official web portal to all federal, state and local government web resources and services.